sensor_id;sensor_type;location;lat;lon;timestamp;pressure;altitude;pressure_sealevel;temperature;humidity
45789;BME280;31492;54.856;26.318;2022-12-18T01:19:34;1008.1;;;-7.7;100
45789;BME280;31492;54.856;26.318;2022-12-18T01:24:22;1010.2;;;-9.7;100
45789;BME280;31492;54.856;26.318;2022-12-18T01:29:22;1010.3;;;-9.8;100
45789;BME280;31492;54.856;26.318;2022-12-18T01:34:32;1010.4;;;-9.9;100
45789;BME280;31492;54.856;26.318;2022-12-18T01:39:22;1010.3;;;-9.9;100
45789;BME280;31492;54.856;26.318;2022-12-18T01:44:56;1010.3;;;-10;100
45789;BME280;31492;54.856;26.318;2022-12-18T01:49:32;1010.3;;;-10;100
45789;BME280;31492;54.856;26.318;2022-12-18T01:54:46;1010.5;;;-10.2;100
45789;BME280;31492;54.856;26.318;2022-12-18T01:59:22;1010.5;;;-10.3;100
45789;BME280;31492;54.856;26.318;2022-12-18T02:04:46;1010.6;;;-10.4;100
45789;BME280;31492;54.856;26.318;2022-12-18T02:09:33;1010.7;;;-10.4;100
45789;BME280;31492;54.856;26.318;2022-12-18T02:14:33;1010.7;;;-10.6;100
45789;BME280;31492;54.856;26.318;2022-12-18T02:19:28;1010.8;;;-10.6;100
45789;BME280;31492;54.856;26.318;2022-12-18T02:24:45;1011;;;-10.7;100
45789;BME280;31492;54.856;26.318;2022-12-18T02:29:35;1011;;;-10.8;100
45789;BME280;31492;54.856;26.318;2022-12-18T02:34:35;1011.1;;;-10.9;100
45789;BME280;31492;54.856;26.318;2022-12-18T02:39:22;1011.1;;;-10.9;100
45789;BME280;31492;54.856;26.318;2022-12-18T02:44:22;1011.1;;;-10.9;100
45789;BME280;31492;54.856;26.318;2022-12-18T02:49:26;1011.2;;;-10.9;100
45789;BME280;31492;54.856;26.318;2022-12-18T02:54:27;1011.4;;;-11;100
45789;BME280;31492;54.856;26.318;2022-12-18T02:59:46;1011.5;;;-11.2;100
45789;BME280;31492;54.856;26.318;2022-12-18T03:04:23;1011.6;;;-11.3;100
45789;BME280;31492;54.856;26.318;2022-12-18T03:09:33;1011.6;;;-11.3;100
45789;BME280;31492;54.856;26.318;2022-12-18T03:14:22;1011.7;;;-11.4;100
45789;BME280;31492;54.856;26.318;2022-12-18T03:19:23;1011.8;;;-11.6;100
45789;BME280;31492;54.856;26.318;2022-12-18T03:24:22;1011.8;;;-11.7;100
45789;BME280;31492;54.856;26.318;2022-12-18T03:29:23;1011.9;;;-11.7;100
45789;BME280;31492;54.856;26.318;2022-12-18T03:34:23;1011.9;;;-11.7;100
45789;BME280;31492;54.856;26.318;2022-12-18T03:39:32;1011.9;;;-11.6;100
45789;BME280;31492;54.856;26.318;2022-12-18T03:44:34;1012.1;;;-11.6;100
45789;BME280;31492;54.856;26.318;2022-12-18T03:49:33;1012.1;;;-11.6;100
45789;BME280;31492;54.856;26.318;2022-12-18T03:54:22;1012.1;;;-11.6;100
45789;BME280;31492;54.856;26.318;2022-12-18T03:59:22;1012.1;;;-11.6;100
45789;BME280;31492;54.856;26.318;2022-12-18T04:04:22;1012.1;;;-11.6;100
45789;BME280;31492;54.856;26.318;2022-12-18T04:09:47;1012.3;;;-11.7;100
45789;BME280;31492;54.856;26.318;2022-12-18T04:14:32;1012.3;;;-11.7;100
45789;BME280;31492;54.856;26.318;2022-12-18T04:19:22;1012.4;;;-11.7;100
45789;BME280;31492;54.856;26.318;2022-12-18T04:24:32;1012.5;;;-11.6;100
45789;BME280;31492;54.856;26.318;2022-12-18T04:29:32;1012.5;;;-11.6;100
45789;BME280;31492;54.856;26.318;2022-12-18T04:34:33;1012.5;;;-11.6;100
45789;BME280;31492;54.856;26.318;2022-12-18T04:39:42;1012.5;;;-11.6;100
45789;BME280;31492;54.856;26.318;2022-12-18T04:44:22;1012.6;;;-11.6;100
45789;BME280;31492;54.856;26.318;2022-12-18T04:49:34;1012.7;;;-11.6;100
45789;BME280;31492;54.856;26.318;2022-12-18T04:54:32;1012.8;;;-11.5;100
45789;BME280;31492;54.856;26.318;2022-12-18T04:59:44;1012.9;;;-11.5;100
45789;BME280;31492;54.856;26.318;2022-12-18T05:04:44;1013;;;-11.6;100
45789;BME280;31492;54.856;26.318;2022-12-18T05:09:22;1013;;;-11.7;100
45789;BME280;31492;54.856;26.318;2022-12-18T05:14:22;1013.1;;;-11.8;100
45789;BME280;31492;54.856;26.318;2022-12-18T05:19:22;1013.1;;;-11.8;100
45789;BME280;31492;54.856;26.318;2022-12-18T05:24:22;1013.2;;;-11.8;100
45789;BME280;31492;54.856;26.318;2022-12-18T05:30:09;1013.2;;;-11.8;100
45789;BME280;31492;54.856;26.318;2022-12-18T05:34:42;1013.4;;;-11.8;100
45789;BME280;31492;54.856;26.318;2022-12-18T05:39:22;1013.5;;;-11.7;100
45789;BME280;31492;54.856;26.318;2022-12-18T05:44:22;1013.4;;;-11.7;100
45789;BME280;31492;54.856;26.318;2022-12-18T05:49:22;1013.4;;;-11.6;100
45789;BME280;31492;54.856;26.318;2022-12-18T05:54:32;1013.5;;;-11.6;100
45789;BME280;31492;54.856;26.318;2022-12-18T05:59:32;1013.5;;;-11.6;100
45789;BME280;31492;54.856;26.318;2022-12-18T06:04:32;1013.5;;;-11.6;100
45789;BME280;31492;54.856;26.318;2022-12-18T06:09:32;1013.6;;;-11.8;100
45789;BME280;31492;54.856;26.318;2022-12-18T06:14:22;1013.7;;;-11.8;100
45789;BME280;31492;54.856;26.318;2022-12-18T06:19:22;1013.8;;;-11.9;100
45789;BME280;31492;54.856;26.318;2022-12-18T06:24:32;1013.9;;;-11.9;100
45789;BME280;31492;54.856;26.318;2022-12-18T06:29:22;1014;;;-11.9;100
45789;BME280;31492;54.856;26.318;2022-12-18T06:34:58;1014;;;-11.9;100
45789;BME280;31492;54.856;26.318;2022-12-18T06:39:54;1014.2;;;-12;100
45789;BME280;31492;54.856;26.318;2022-12-18T06:44:32;1014.4;;;-12;100
45789;BME280;31492;54.856;26.318;2022-12-18T06:49:32;1014.4;;;-12;100
45789;BME280;31492;54.856;26.318;2022-12-18T06:54:32;1014.5;;;-12.1;100
45789;BME280;31492;54.856;26.318;2022-12-18T06:59:22;1014.6;;;-12.1;100
45789;BME280;31492;54.856;26.318;2022-12-18T07:04:34;1014.7;;;-12.1;100
45789;BME280;31492;54.856;26.318;2022-12-18T07:09:22;1014.8;;;-12.1;100
45789;BME280;31492;54.856;26.318;2022-12-18T07:14:32;1014.8;;;-12.2;100
45789;BME280;31492;54.856;26.318;2022-12-18T07:19:23;1014.9;;;-12.2;100
45789;BME280;31492;54.856;26.318;2022-12-18T07:24:34;1015;;;-12.2;100
45789;BME280;31492;54.856;26.318;2022-12-18T07:29:22;1015;;;-12.4;100
45789;BME280;31492;54.856;26.318;2022-12-18T07:34:42;1015.1;;;-12.5;100
45789;BME280;31492;54.856;26.318;2022-12-18T07:39:42;1015.1;;;-12.5;100
45789;BME280;31492;54.856;26.318;2022-12-18T07:44:22;1015.2;;;-12.4;100
45789;BME280;31492;54.856;26.318;2022-12-18T07:49:22;1015.2;;;-12.4;100
45789;BME280;31492;54.856;26.318;2022-12-18T07:54:36;1015.3;;;-12.4;100
45789;BME280;31492;54.856;26.318;2022-12-18T07:59:22;1015.3;;;-12.4;100
45789;BME280;31492;54.856;26.318;2022-12-18T08:04:22;1015.4;;;-12.4;100
45789;BME280;31492;54.856;26.318;2022-12-18T08:09:36;1015.4;;;-12.3;100
45789;BME280;31492;54.856;26.318;2022-12-18T08:14:46;1015.5;;;-12.4;100
45789;BME280;31492;54.856;26.318;2022-12-18T08:19:46;1015.5;;;-12.4;100
45789;BME280;31492;54.856;26.318;2022-12-18T08:24:22;1015.6;;;-12.4;100
45789;BME280;31492;54.856;26.318;2022-12-18T08:29:22;1015.7;;;-12.4;100
45789;BME280;31492;54.856;26.318;2022-12-18T08:34:32;1015.7;;;-12.1;100
45789;BME280;31492;54.856;26.318;2022-12-18T08:39:30;1015.7;;;-11.9;100
45789;BME280;31492;54.856;26.318;2022-12-18T08:44:22;1015.8;;;-11.7;100
45789;BME280;31492;54.856;26.318;2022-12-18T08:49:22;1015.8;;;-11.5;100
45789;BME280;31492;54.856;26.318;2022-12-18T08:54:32;1015.8;;;-11.3;100
45789;BME280;31492;54.856;26.318;2022-12-18T08:59:22;1015.9;;;-11;100
45789;BME280;31492;54.856;26.318;2022-12-18T09:04:22;1016;;;-11;100
45789;BME280;31492;54.856;26.318;2022-12-18T09:09:32;1016.1;;;-10.8;100
45789;BME280;31492;54.856;26.318;2022-12-18T09:14:32;1016;;;-10.6;100
45789;BME280;31492;54.856;26.318;2022-12-18T09:19:22;1016;;;-10.4;100
45789;BME280;31492;54.856;26.318;2022-12-18T09:24:22;1016.1;;;-10.2;100
45789;BME280;31492;54.856;26.318;2022-12-18T09:29:22;1016.2;;;-10.1;100
45789;BME280;31492;54.856;26.318;2022-12-18T09:34:36;1016.2;;;-9.9;100
45789;BME280;31492;54.856;26.318;2022-12-18T09:39:35;1016.2;;;-9.8;100
45789;BME280;31492;54.856;26.318;2022-12-18T09:44:23;1016.2;;;-9.7;100
45789;BME280;31492;54.856;26.318;2022-12-18T09:49:23;1016.2;;;-9.6;100
45789;BME280;31492;54.856;26.318;2022-12-18T09:54:48;1016.2;;;-9.5;100
45789;BME280;31492;54.856;26.318;2022-12-18T09:59:23;1016.3;;;-9.5;100
45789;BME280;31492;54.856;26.318;2022-12-18T10:04:23;1016.3;;;-9.4;100
45789;BME280;31492;54.856;26.318;2022-12-18T10:09:25;1016.4;;;-9.2;100
45789;BME280;31492;54.856;26.318;2022-12-18T10:14:34;1016.4;;;-9.2;100
45789;BME280;31492;54.856;26.318;2022-12-18T10:19:26;1016.4;;;-9.1;100
45789;BME280;31492;54.856;26.318;2022-12-18T10:24:36;1016.4;;;-9;100
45789;BME280;31492;54.856;26.318;2022-12-18T10:29:32;1016.4;;;-8.9;100
45789;BME280;31492;54.856;26.318;2022-12-18T10:34:44;1016.5;;;-8.9;100
45789;BME280;31492;54.856;26.318;2022-12-18T10:39:32;1016.5;;;-8.8;100
45789;BME280;31492;54.856;26.318;2022-12-18T10:44:32;1016.5;;;-8.7;100
45789;BME280;31492;54.856;26.318;2022-12-18T10:49:23;1016.4;;;-8.7;100
45789;BME280;31492;54.856;26.318;2022-12-18T10:54:30;1016.5;;;-8.7;100
45789;BME280;31492;54.856;26.318;2022-12-18T10:59:22;1016.5;;;-8.6;100
45789;BME280;31492;54.856;26.318;2022-12-18T11:04:24;1016.5;;;-8.6;100
45789;BME280;31492;54.856;26.318;2022-12-18T11:09:31;1016.6;;;-8.5;100
45789;BME280;31492;54.856;26.318;2022-12-18T11:14:41;1016.6;;;-8.4;100
45789;BME280;31492;54.856;26.318;2022-12-18T11:19:26;1016.7;;;-8.3;100
45789;BME280;31492;54.856;26.318;2022-12-18T11:24:24;1016.8;;;-8.3;100
45789;BME280;31492;54.856;26.318;2022-12-18T11:29:35;1016.8;;;-8.3;100
45789;BME280;31492;54.856;26.318;2022-12-18T11:34:32;1016.8;;;-8.4;100
45789;BME280;31492;54.856;26.318;2022-12-18T11:39:35;1016.8;;;-8.3;100
45789;BME280;31492;54.856;26.318;2022-12-18T11:44:35;1016.8;;;-8.1;100
45789;BME280;31492;54.856;26.318;2022-12-18T11:49:24;1016.9;;;-8;100
45789;BME280;31492;54.856;26.318;2022-12-18T11:54:32;1016.9;;;-8;100
45789;BME280;31492;54.856;26.318;2022-12-18T11:59:48;1016.9;;;-7.9;100
45789;BME280;31492;54.856;26.318;2022-12-18T12:04:33;1016.8;;;-8;100
45789;BME280;31492;54.856;26.318;2022-12-18T12:09:34;1016.9;;;-7.9;100
45789;BME280;31492;54.856;26.318;2022-12-18T12:14:37;1017;;;-7.9;100
45789;BME280;31492;54.856;26.318;2022-12-18T12:19:37;1017;;;-7.9;100
45789;BME280;31492;54.856;26.318;2022-12-18T12:24:26;1017;;;-7.9;100
45789;BME280;31492;54.856;26.318;2022-12-18T12:29:26;1017.1;;;-7.9;100
45789;BME280;31492;54.856;26.318;2022-12-18T12:34:45;1017.1;;;-7.9;100
45789;BME280;31492;54.856;26.318;2022-12-18T12:39:35;1017.2;;;-7.8;100
45789;BME280;31492;54.856;26.318;2022-12-18T12:44:23;1017.3;;;-7.7;100
45789;BME280;31492;54.856;26.318;2022-12-18T12:49:32;1017.3;;;-7.8;100
45789;BME280;31492;54.856;26.318;2022-12-18T12:54:23;1017.4;;;-7.8;100
45789;BME280;31492;54.856;26.318;2022-12-18T12:59:35;1017.4;;;-7.7;100
45789;BME280;31492;54.856;26.318;2022-12-18T13:04:45;1017.4;;;-7.7;100
45789;BME280;31492;54.856;26.318;2022-12-18T13:09:33;1017.5;;;-7.6;100
45789;BME280;31492;54.856;26.318;2022-12-18T13:14:34;1017.6;;;-7.6;100
45789;BME280;31492;54.856;26.318;2022-12-18T13:20:03;1017.7;;;-7.6;100
45789;BME280;31492;54.856;26.318;2022-12-18T13:24:31;1017.7;;;-7.6;100
45789;BME280;31492;54.856;26.318;2022-12-18T13:29:54;1017.7;;;-7.6;100
45789;BME280;31492;54.856;26.318;2022-12-18T13:34:23;1017.7;;;-7.6;100
45789;BME280;31492;54.856;26.318;2022-12-18T13:39:45;1017.8;;;-7.6;100
45789;BME280;31492;54.856;26.318;2022-12-18T13:44:35;1017.9;;;-7.6;100
45789;BME280;31492;54.856;26.318;2022-12-18T13:49:24;1017.9;;;-7.5;100
45789;BME280;31492;54.856;26.318;2022-12-18T13:54:24;1017.8;;;-7.5;100
45789;BME280;31492;54.856;26.318;2022-12-18T13:59:23;1017.9;;;-7.5;100
45789;BME280;31492;54.856;26.318;2022-12-18T14:04:25;1017.9;;;-7.5;100
45789;BME280;31492;54.856;26.318;2022-12-18T14:09:43;1018;;;-7.5;100
45789;BME280;31492;54.856;26.318;2022-12-18T14:14:23;1018;;;-7.5;100
45789;BME280;31492;54.856;26.318;2022-12-18T14:19:47;1018;;;-7.5;100
45789;BME280;31492;54.856;26.318;2022-12-18T14:24:37;1018;;;-7.6;100
45789;BME280;31492;54.856;26.318;2022-12-18T14:29:47;1018.1;;;-7.5;100
45789;BME280;31492;54.856;26.318;2022-12-18T14:34:35;1018.1;;;-7.4;100
45789;BME280;31492;54.856;26.318;2022-12-18T14:39:59;1018.2;;;-7.4;100
45789;BME280;31492;54.856;26.318;2022-12-18T14:44:23;1018.2;;;-7.4;100
45789;BME280;31492;54.856;26.318;2022-12-18T14:49:47;1018.3;;;-7.6;100
45789;BME280;31492;54.856;26.318;2022-12-18T14:54:23;1018.3;;;-7.8;100
45789;BME280;31492;54.856;26.318;2022-12-18T14:59:23;1018.4;;;-7.9;100
45789;BME280;31492;54.856;26.318;2022-12-18T15:04:33;1018.4;;;-7.9;100
45789;BME280;31492;54.856;26.318;2022-12-18T15:09:23;1018.5;;;-8;100
45789;BME280;31492;54.856;26.318;2022-12-18T15:14:47;1018.4;;;-8;100
45789;BME280;31492;54.856;26.318;2022-12-18T15:19:36;1018.4;;;-8.1;100
45789;BME280;31492;54.856;26.318;2022-12-18T15:24:35;1018.4;;;-8.1;100
45789;BME280;31492;54.856;26.318;2022-12-18T15:29:23;1018.4;;;-8;100
45789;BME280;31492;54.856;26.318;2022-12-18T15:34:23;1018.5;;;-7.9;100
45789;BME280;31492;54.856;26.318;2022-12-18T15:39:43;1018.5;;;-7.9;100
45789;BME280;31492;54.856;26.318;2022-12-18T15:44:23;1018.5;;;-7.9;100
45789;BME280;31492;54.856;26.318;2022-12-18T15:49:43;1018.6;;;-7.8;100
45789;BME280;31492;54.856;26.318;2022-12-18T15:54:33;1018.6;;;-7.7;100
45789;BME280;31492;54.856;26.318;2022-12-18T15:59:23;1018.6;;;-7.7;100
45789;BME280;31492;54.856;26.318;2022-12-18T16:04:33;1018.6;;;-7.7;100
45789;BME280;31492;54.856;26.318;2022-12-18T16:09:35;1018.6;;;-7.6;100
45789;BME280;31492;54.856;26.318;2022-12-18T16:14:23;1018.6;;;-7.6;100
45789;BME280;31492;54.856;26.318;2022-12-18T16:19:23;1018.6;;;-7.6;100
45789;BME280;31492;54.856;26.318;2022-12-18T16:24:33;1018.6;;;-7.6;100
45789;BME280;31492;54.856;26.318;2022-12-18T16:29:23;1018.6;;;-7.5;100
45789;BME280;31492;54.856;26.318;2022-12-18T16:34:33;1018.6;;;-7.5;100
45789;BME280;31492;54.856;26.318;2022-12-18T16:39:33;1018.6;;;-7.4;100
45789;BME280;31492;54.856;26.318;2022-12-18T16:44:33;1018.6;;;-7.3;100
45789;BME280;31492;54.856;26.318;2022-12-18T16:49:23;1018.7;;;-7.3;100
45789;BME280;31492;54.856;26.318;2022-12-18T16:54:23;1018.7;;;-7.4;100
45789;BME280;31492;54.856;26.318;2022-12-18T16:59:23;1018.7;;;-7.4;100
45789;BME280;31492;54.856;26.318;2022-12-18T17:04:23;1018.8;;;-7.3;100
45789;BME280;31492;54.856;26.318;2022-12-18T17:09:23;1018.9;;;-7.4;100
45789;BME280;31492;54.856;26.318;2022-12-18T17:14:23;1018.9;;;-7.3;100
45789;BME280;31492;54.856;26.318;2022-12-18T17:19:23;1018.9;;;-7.3;100
45789;BME280;31492;54.856;26.318;2022-12-18T17:24:23;1019;;;-7.3;100
45789;BME280;31492;54.856;26.318;2022-12-18T17:29:23;1019;;;-7.4;100
45789;BME280;31492;54.856;26.318;2022-12-18T17:34:43;1019;;;-7.6;100
45789;BME280;31492;54.856;26.318;2022-12-18T17:39:23;1018.9;;;-7.8;100
45789;BME280;31492;54.856;26.318;2022-12-18T17:44:33;1018.9;;;-8;100
45789;BME280;31492;54.856;26.318;2022-12-18T17:49:33;1018.8;;;-8.1;100
45789;BME280;31492;54.856;26.318;2022-12-18T17:54:23;1018.8;;;-8.1;100
45789;BME280;31492;54.856;26.318;2022-12-18T17:59:33;1018.7;;;-8.2;100
45789;BME280;31492;54.856;26.318;2022-12-18T18:04:23;1018.6;;;-8.3;100
45789;BME280;31492;54.856;26.318;2022-12-18T18:09:33;1018.6;;;-8.4;100
45789;BME280;31492;54.856;26.318;2022-12-18T18:14:23;1018.7;;;-8.5;100
45789;BME280;31492;54.856;26.318;2022-12-18T18:19:33;1018.7;;;-8.6;100
45789;BME280;31492;54.856;26.318;2022-12-18T18:24:23;1018.7;;;-8.7;100
45789;BME280;31492;54.856;26.318;2022-12-18T18:29:35;1018.8;;;-8.8;100
45789;BME280;31492;54.856;26.318;2022-12-18T18:34:23;1018.9;;;-8.8;100
45789;BME280;31492;54.856;26.318;2022-12-18T18:39:33;1019;;;-8.8;100
45789;BME280;31492;54.856;26.318;2022-12-18T18:44:33;1019;;;-8.9;100
45789;BME280;31492;54.856;26.318;2022-12-18T18:49:33;1018.9;;;-9.1;100
45789;BME280;31492;54.856;26.318;2022-12-18T18:54:37;1019;;;-9.2;100
45789;BME280;31492;54.856;26.318;2022-12-18T18:59:23;1019;;;-9.3;100
45789;BME280;31492;54.856;26.318;2022-12-18T19:04:29;1019.1;;;-9.3;100
45789;BME280;31492;54.856;26.318;2022-12-18T19:09:33;1019.1;;;-9.4;100
45789;BME280;31492;54.856;26.318;2022-12-18T19:14:23;1019.1;;;-9.4;100
45789;BME280;31492;54.856;26.318;2022-12-18T19:19:23;1019.1;;;-9.5;100
45789;BME280;31492;54.856;26.318;2022-12-18T19:24:33;1019.1;;;-9.5;100
45789;BME280;31492;54.856;26.318;2022-12-18T19:29:33;1019.2;;;-9.5;100
45789;BME280;31492;54.856;26.318;2022-12-18T19:34:33;1019.3;;;-9.6;100
45789;BME280;31492;54.856;26.318;2022-12-18T19:39:33;1019.4;;;-9.6;100
45789;BME280;31492;54.856;26.318;2022-12-18T19:44:33;1019.4;;;-9.6;100
45789;BME280;31492;54.856;26.318;2022-12-18T19:49:31;1019.3;;;-9.7;100
45789;BME280;31492;54.856;26.318;2022-12-18T19:54:23;1019.4;;;-9.8;100
45789;BME280;31492;54.856;26.318;2022-12-18T19:59:33;1019.4;;;-9.9;100
45789;BME280;31492;54.856;26.318;2022-12-18T20:04:23;1019.4;;;-10.1;100
45789;BME280;31492;54.856;26.318;2022-12-18T20:09:33;1019.5;;;-10.2;100
45789;BME280;31492;54.856;26.318;2022-12-18T20:14:43;1019.6;;;-10.2;100
45789;BME280;31492;54.856;26.318;2022-12-18T20:19:43;1019.7;;;-10.2;100
45789;BME280;31492;54.856;26.318;2022-12-18T20:24:23;1019.7;;;-10.3;100
45789;BME280;31492;54.856;26.318;2022-12-18T20:29:43;1019.6;;;-10.3;100
45789;BME280;31492;54.856;26.318;2022-12-18T20:34:49;1019.6;;;-10.3;100
45789;BME280;31492;54.856;26.318;2022-12-18T20:39:45;1019.6;;;-10.3;100
45789;BME280;31492;54.856;26.318;2022-12-18T20:44:23;1019.7;;;-10.3;100
45789;BME280;31492;54.856;26.318;2022-12-18T20:49:33;1019.8;;;-10.3;100
45789;BME280;31492;54.856;26.318;2022-12-18T20:54:33;1019.9;;;-10.3;100
45789;BME280;31492;54.856;26.318;2022-12-18T20:59:35;1019.8;;;-10.3;100
45789;BME280;31492;54.856;26.318;2022-12-18T21:04:23;1019.9;;;-10.4;100
45789;BME280;31492;54.856;26.318;2022-12-18T21:09:33;1019.9;;;-10.3;100
45789;BME280;31492;54.856;26.318;2022-12-18T21:14:23;1020;;;-10.3;100
45789;BME280;31492;54.856;26.318;2022-12-18T21:19:24;1020;;;-10.4;100
45789;BME280;31492;54.856;26.318;2022-12-18T21:24:45;1020;;;-10.4;100
45789;BME280;31492;54.856;26.318;2022-12-18T21:29:33;1019.9;;;-10.4;100
45789;BME280;31492;54.856;26.318;2022-12-18T21:34:35;1019.9;;;-10.5;100
45789;BME280;31492;54.856;26.318;2022-12-18T21:39:43;1019.9;;;-10.5;100
45789;BME280;31492;54.856;26.318;2022-12-18T21:44:23;1019.8;;;-10.6;100
45789;BME280;31492;54.856;26.318;2022-12-18T21:49:23;1019.8;;;-10.6;100
